Time;durP1;ratioP1;P1;durP2;ratioP2;P2;SDS_P1;SDS_P2;PMS_P1;PMS_P2;Temp;Humidity;BMP_temperature;BMP_pressure;BME280_temperature;BME280_humidity;BME280_pressure;Samples;Min_cycle;Max_cycle;Signal;HPM_P1;HPM_P2
2022/02/10 00:06:00;;;;;;;;;;;;;;;10.55;85.89;100472.16;1808942;78;20238;-78
2022/02/10 00:21:46;;;;;;;;;;;;;;;10.50;86.54;100492.45;1807468;78;20117;-78
2022/02/10 00:34:42;;;;;;;;;;;;;;;10.44;86.57;100496.14;1820942;77;20143;-77
2022/02/10 00:37:13;;;;;;;;;;;;;;;10.46;86.74;100492.88;1827439;77;20250;-76
2022/02/10 00:42:12;;;;;;;;;;;;;;;10.49;86.66;100500.52;1827923;77;20129;-77
2022/02/10 00:44:38;;;;;;;;;;;;;;;10.40;87.09;100494.29;1817332;77;20168;-77
2022/02/10 00:47:04;;;;;;;;;;;;;;;10.51;86.69;100493.27;1819312;77;21012;-78
2022/02/10 00:49:29;;;;;;;;;;;;;;;10.43;87.03;100493.18;1828225;77;20240;-78
2022/02/10 00:51:56;;;;;;;;;;;;;;;10.55;86.40;100492.83;1818161;77;20142;-79
2022/02/10 00:54:25;;;;;;;;;;;;;;;10.57;86.26;100501.42;1822158;77;20214;-81
2022/02/10 00:56:49;;;;;;;;;;;;;;;10.31;87.46;100486.72;1818800;77;20169;-78
2022/02/10 01:00:08;;;;;;;;;;;;;;;10.58;86.79;100495.17;1823626;77;22380;-77
2022/02/10 01:10:25;;;;;;;;;;;;;;;10.16;88.79;100499.58;1823970;77;20172;-78
2022/02/10 01:12:43;;;;;;;;;;;;;;;10.28;88.61;100498.89;1831261;77;20266;-81
2022/02/10 01:31:21;;;;;;;;;;;;;;;10.52;87.67;100481.73;1825280;78;20148;-77
2022/02/10 01:33:46;;;;;;;;;;;;;;;10.53;87.64;100489.98;1818876;78;20152;-78
2022/02/10 01:36:12;;;;;;;;;;;;;;;10.41;88.19;100505.20;1825646;78;20192;-80
2022/02/10 01:38:38;;;;;;;;;;;;;;;10.49;87.96;100497.87;1822105;78;21128;-77
2022/02/10 02:05:43;;;;;;;;;;;;;;;10.23;90.40;100509.06;1818583;78;20132;-77
2022/02/10 02:08:07;;;;;;;;;;;;;;;10.22;90.27;100491.55;1818082;78;21308;-77
2022/02/10 02:10:33;;;;;;;;;;;;;;;10.50;88.65;100503.01;1823657;77;21073;-77
2022/02/10 02:13:00;;;;;;;;;;;;;;;10.39;88.94;100505.81;1823700;78;20148;-77
2022/02/10 02:15:26;;;;;;;;;;;;;;;10.27;89.96;100498.56;1823215;78;20199;-78
2022/02/10 02:17:51;;;;;;;;;;;;;;;10.17;90.67;100496.44;1829760;78;21230;-77
2022/02/10 02:20:17;;;;;;;;;;;;;;;10.34;89.66;100498.84;1825560;78;20245;-77
2022/02/10 02:22:42;;;;;;;;;;;;;;;10.32;89.73;100505.55;1824763;78;20469;-81
2022/02/10 02:25:09;;;;;;;;;;;;;;;10.20;90.44;100498.79;1824105;77;21201;-77
2022/02/10 02:27:49;;;;;;;;;;;;;;;10.30;89.88;100522.03;1826503;78;20156;-77
2022/02/10 02:30:27;;;;;;;;;;;;;;;10.25;89.63;100499.17;1822732;78;21190;-78
2022/02/10 02:36:08;;;;;;;;;;;;;;;10.20;90.24;100509.34;1818831;78;20187;-77
2022/02/10 03:08:23;;;;;;;;;;;;;;;10.08;91.75;100511.32;1829610;78;20663;-79
2022/02/10 03:13:22;;;;;;;;;;;;;;;10.32;90.80;100502.09;1823632;78;20113;-78
2022/02/10 04:05:10;;;;;;;;;;;;;;;10.33;90.86;100482.17;1817125;77;20136;-77
2022/02/10 04:23:10;;;;;;;;;;;;;;;10.39;91.51;100480.27;1823124;77;20124;-78
2022/02/10 04:44:07;;;;;;;;;;;;;;;10.37;94.08;100489.30;1832580;77;20162;-81
2022/02/10 05:02:07;;;;;;;;;;;;;;;10.20;94.40;100496.15;1822770;77;21048;-77
2022/02/10 05:07:24;;;;;;;;;;;;;;;10.25;94.44;100491.26;1826891;77;20132;-78
2022/02/10 05:35:54;;;;;;;;;;;;;;;10.40;91.29;100499.57;1816779;77;20162;-77
2022/02/10 05:38:27;;;;;;;;;;;;;;;10.58;91.15;100507.52;1832472;77;20174;-77
2022/02/10 05:49:14;;;;;;;;;;;;;;;10.41;91.69;100502.06;1823702;77;20170;-78
2022/02/10 06:48:20;;;;;;;;;;;;;;;10.61;91.54;100497.98;1829189;77;20226;-77
2022/02/10 06:50:39;;;;;;;;;;;;;;;10.64;92.02;100490.27;1822213;77;20085;-78
2022/02/10 06:55:51;;;;;;;;;;;;;;;10.43;93.20;100486.58;1829809;77;20282;-79
2022/02/10 07:08:54;;;;;;;;;;;;;;;10.26;94.54;100480.23;1823926;77;20077;-81
2022/02/10 07:49:07;;;;;;;;;;;;;;;10.80;92.38;100500.17;1830532;77;20148;-81
2022/02/10 09:06:21;;;;;;;;;;;;;;;10.78;93.47;100489.75;1816152;77;20578;-79
2022/02/10 09:16:55;;;;;;;;;;;;;;;10.89;92.65;100473.70;1816076;77;20187;-78
2022/02/10 09:59:32;;;;;;;;;;;;;;;10.78;91.60;100441.73;1819998;77;20112;-83
2022/02/10 10:02:14;;;;;;;;;;;;;;;10.85;90.15;100447.73;1811693;77;20200;-77
2022/02/10 10:04:44;;;;;;;;;;;;;;;10.91;89.99;100429.45;1807214;77;20430;-80
2022/02/10 10:10:15;;;;;;;;;;;;;;;11.00;88.99;100432.16;1824711;77;20485;-79
2022/02/10 10:12:55;;;;;;;;;;;;;;;10.94;88.99;100434.94;1824896;77;20211;-78
2022/02/10 10:18:21;;;;;;;;;;;;;;;10.85;87.96;100430.56;1814499;77;20132;-78
2022/02/10 10:20:39;;;;;;;;;;;;;;;11.10;87.69;100417.89;1814744;77;20159;-77
2022/02/10 10:26:06;;;;;;;;;;;;;;;11.29;86.36;100420.83;1777748;77;36510;-79
2022/02/10 10:58:42;;;;;;;;;;;;;;;11.18;83.54;100387.23;1818187;77;20095;-83
2022/02/10 11:07:19;;;;;;;;;;;;;;;11.77;81.44;100364.41;1813664;77;20150;-80
2022/02/10 11:39:33;;;;;;;;;;;;;;;11.90;80.13;100323.45;1822989;77;20271;-76
2022/02/10 11:42:13;;;;;;;;;;;;;;;12.10;79.33;100327.51;1823072;77;20095;-78
2022/02/10 11:45:17;;;;;;;;;;;;;;;12.32;78.58;100308.02;1830276;77;20496;-78
2022/02/10 14:14:11;;;;;;;;;;;;;;;12.31;71.88;100135.59;1821002;77;20497;-80
2022/02/10 14:16:42;;;;;;;;;;;;;;;12.39;71.96;100130.27;1821800;77;20120;-79
2022/02/10 14:19:14;;;;;;;;;;;;;;;12.57;71.69;100129.58;1815807;77;20170;-82
2022/02/10 14:21:44;;;;;;;;;;;;;;;12.79;71.22;100129.84;1813058;77;20115;-81
2022/02/10 14:26:43;;;;;;;;;;;;;;;12.99;70.25;100128.09;1781268;77;20819;-81
2022/02/10 14:28:59;;;;;;;;;;;;;;;12.85;70.81;100111.09;1811828;77;20103;-82
2022/02/10 14:31:25;;;;;;;;;;;;;;;12.89;70.92;100113.22;1815792;77;20584;-86
2022/02/10 14:33:52;;;;;;;;;;;;;;;12.92;71.04;100111.55;1817448;77;21131;-81
2022/02/10 14:36:25;;;;;;;;;;;;;;;12.97;70.78;100106.24;1813916;77;20154;-83
2022/02/10 15:28:54;;;;;;;;;;;;;;;14.24;65.39;100058.88;1786590;77;20142;-80
2022/02/10 15:51:59;;;;;;;;;;;;;;;13.42;66.19;100038.38;1825063;77;20129;-78
2022/02/10 16:18:41;;;;;;;;;;;;;;;13.02;66.55;100024.36;1761369;80;20290;-80
2022/02/10 16:21:00;;;;;;;;;;;;;;;12.82;66.57;100025.30;1786384;77;21280;-78
2022/02/10 16:23:25;;;;;;;;;;;;;;;12.73;66.55;100017.91;1822838;77;20103;-81
2022/02/10 16:26:08;;;;;;;;;;;;;;;12.79;66.43;99996.02;1826215;77;20195;-80
2022/02/10 16:30:49;;;;;;;;;;;;;;;12.65;66.56;99996.77;1815547;77;20156;-79
2022/02/10 16:33:14;;;;;;;;;;;;;;;12.45;66.58;99991.06;1763381;80;21149;-78
2022/02/10 16:35:42;;;;;;;;;;;;;;;12.43;66.50;99984.62;1780800;80;20155;-81
2022/02/10 16:38:08;;;;;;;;;;;;;;;12.39;66.75;99989.92;1781263;80;20284;-78
2022/02/10 16:40:33;;;;;;;;;;;;;;;12.51;66.01;99983.25;1782405;79;20202;-87
2022/02/10 16:42:59;;;;;;;;;;;;;;;12.59;65.93;99984.22;1781255;80;20989;-79
2022/02/10 16:45:25;;;;;;;;;;;;;;;12.20;66.43;99985.35;1780356;80;22292;-81
2022/02/10 16:47:51;;;;;;;;;;;;;;;12.41;66.52;99978.64;1781818;80;20178;-81
2022/02/10 16:50:17;;;;;;;;;;;;;;;12.62;66.19;99981.22;1781970;80;20230;-79
2022/02/10 16:52:47;;;;;;;;;;;;;;;12.47;66.13;99978.47;1780777;80;20150;-82
2022/02/10 16:55:23;;;;;;;;;;;;;;;12.66;66.20;99982.50;1781213;79;20608;-79
2022/02/10 17:00:35;;;;;;;;;;;;;;;12.50;66.11;99976.29;1781168;80;20139;-84
2022/02/10 17:19:01;;;;;;;;;;;;;;;12.51;66.15;99966.54;1781789;80;20128;-84
2022/02/10 17:21:29;;;;;;;;;;;;;;;12.43;66.32;99967.41;1775539;80;20465;-79
2022/02/10 17:26:41;;;;;;;;;;;;;;;12.42;67.32;99967.06;1781151;79;20440;-80
2022/02/10 17:28:59;;;;;;;;;;;;;;;12.26;66.96;99965.80;1777832;80;20167;-79
2022/02/10 17:37:01;;;;;;;;;;;;;;;12.09;67.39;99955.29;1791501;77;20218;-81
2022/02/10 17:53:10;;;;;;;;;;;;;;;12.05;67.68;99926.18;1763532;77;20138;-78
2022/02/10 17:55:28;;;;;;;;;;;;;;;11.97;67.67;99918.28;1784709;77;20173;-78
2022/02/10 17:57:53;;;;;;;;;;;;;;;12.07;67.74;99916.23;1788303;77;20121;-88
2022/02/10 18:00:21;;;;;;;;;;;;;;;12.17;67.61;99915.55;1798415;77;21356;-82
2022/02/10 18:02:46;;;;;;;;;;;;;;;12.16;67.18;99913.06;1791185;77;21103;-80
2022/02/10 18:05:31;;;;;;;;;;;;;;;12.24;67.24;99905.59;1802592;77;20237;-82
2022/02/10 18:07:41;;;;;;;;;;;;;;;11.99;67.63;99912.31;1795965;77;20145;-85
2022/02/10 18:10:38;;;;;;;;;;;;;;;12.10;67.59;99903.17;1801601;77;20281;-77
2022/02/10 18:13:19;;;;;;;;;;;;;;;11.99;67.65;99899.92;1797445;77;20202;-77
2022/02/10 18:15:22;;;;;;;;;;;;;;;12.14;67.30;99889.42;1796785;77;20143;-80
2022/02/10 18:17:50;;;;;;;;;;;;;;;12.11;67.48;99889.77;1802600;77;20223;-81
2022/02/10 18:20:19;;;;;;;;;;;;;;;12.18;67.77;99882.79;1810659;77;20154;-78
2022/02/10 18:28:23;;;;;;;;;;;;;;;12.16;67.16;99874.17;1803718;77;20830;-85
2022/02/10 18:30:17;;;;;;;;;;;;;;;11.86;67.89;99872.63;1787535;77;20292;-86
2022/02/10 19:01:43;;;;;;;;;;;;;;;11.99;67.34;99846.15;1820228;77;20644;-81
2022/02/10 19:09:54;;;;;;;;;;;;;;;11.91;68.23;99833.75;1820721;77;20595;-78
2022/02/10 19:12:20;;;;;;;;;;;;;;;11.79;68.13;99843.91;1823539;77;20149;-82
2022/02/10 19:14:54;;;;;;;;;;;;;;;11.85;68.01;99837.08;1814390;77;20101;-79
2022/02/10 19:17:21;;;;;;;;;;;;;;;11.92;68.03;99841.20;1817394;77;20125;-80
2022/02/10 19:19:47;;;;;;;;;;;;;;;12.05;67.83;99834.88;1820950;77;21287;-82
2022/02/10 19:22:12;;;;;;;;;;;;;;;11.73;68.42;99836.66;1817106;77;20137;-79
2022/02/10 19:24:38;;;;;;;;;;;;;;;11.92;68.42;99845.17;1823217;77;20761;-80
2022/02/10 19:27:04;;;;;;;;;;;;;;;11.84;68.49;99848.69;1814788;77;20132;-80
2022/02/10 19:29:30;;;;;;;;;;;;;;;11.92;68.32;99841.20;1820511;77;20133;-81
2022/02/10 19:31:56;;;;;;;;;;;;;;;11.85;68.50;99843.22;1823303;77;21097;-80
2022/02/10 19:34:22;;;;;;;;;;;;;;;11.68;69.15;99846.91;1824912;77;20418;-79
2022/02/10 19:36:49;;;;;;;;;;;;;;;11.93;68.57;99844.19;1819679;77;20107;-80
2022/02/10 19:39:19;;;;;;;;;;;;;;;11.56;69.54;99848.27;1824402;77;20129;-85
2022/02/10 19:41:47;;;;;;;;;;;;;;;11.57;69.53;99874.54;1821133;77;20454;-79
2022/02/10 19:44:12;;;;;;;;;;;;;;;11.71;69.46;99858.97;1821589;77;20404;-78
2022/02/10 19:46:37;;;;;;;;;;;;;;;11.76;69.43;99849.54;1816053;77;20119;-79
2022/02/10 19:49:03;;;;;;;;;;;;;;;11.67;69.68;99855.85;1832168;77;20131;-80
2022/02/10 19:51:29;;;;;;;;;;;;;;;11.45;70.20;99864.84;1818722;77;20732;-78
2022/02/10 19:53:56;;;;;;;;;;;;;;;11.45;70.69;99859.55;1819153;77;20159;-79
2022/02/10 19:56:24;;;;;;;;;;;;;;;11.40;71.01;99857.88;1817813;77;21994;-81
2022/02/10 19:58:49;;;;;;;;;;;;;;;11.47;70.69;99864.16;1819376;77;20129;-78
2022/02/10 20:01:14;;;;;;;;;;;;;;;11.33;71.34;99875.44;1814899;77;20141;-79
2022/02/10 20:03:41;;;;;;;;;;;;;;;11.12;72.19;99868.02;1813485;77;21157;-80
2022/02/10 20:06:06;;;;;;;;;;;;;;;11.21;72.02;99870.16;1811122;77;20686;-82
2022/02/10 20:08:32;;;;;;;;;;;;;;;11.16;72.36;99874.62;1816975;77;21073;-81
2022/02/10 20:10:57;;;;;;;;;;;;;;;11.14;72.77;99880.08;1814839;77;20293;-80
2022/02/10 20:13:29;;;;;;;;;;;;;;;11.20;72.46;99885.68;1818836;77;20148;-81
2022/02/10 20:15:55;;;;;;;;;;;;;;;11.36;72.18;99887.47;1817947;76;20208;-83
2022/02/10 20:18:21;;;;;;;;;;;;;;;11.43;72.14;99886.63;1817980;77;20191;-80
2022/02/10 20:20:53;;;;;;;;;;;;;;;11.46;72.01;99896.88;1820699;77;21124;-81
2022/02/10 20:23:17;;;;;;;;;;;;;;;11.34;72.67;99916.72;1808313;77;20130;-79
2022/02/10 20:25:43;;;;;;;;;;;;;;;11.32;73.13;99893.09;1812148;77;20227;-81
2022/02/10 20:28:09;;;;;;;;;;;;;;;11.40;73.31;99881.68;1774424;80;20665;-80
2022/02/10 20:30:37;;;;;;;;;;;;;;;11.48;73.19;99901.52;1756179;80;20212;-81
2022/02/10 20:33:02;;;;;;;;;;;;;;;11.63;72.77;99915.36;1744276;80;21932;-80
2022/02/10 20:35:28;;;;;;;;;;;;;;;11.49;73.31;99907.11;1777549;79;20261;-81
2022/02/10 20:37:59;;;;;;;;;;;;;;;11.59;73.07;99902.14;1755082;80;20137;-84
2022/02/10 20:40:21;;;;;;;;;;;;;;;11.46;73.64;99892.91;1748443;80;20195;-85
2022/02/10 20:42:47;;;;;;;;;;;;;;;11.39;74.12;99900.36;1744794;80;20141;-80
2022/02/10 20:45:12;;;;;;;;;;;;;;;11.53;73.66;99907.63;1759588;80;21109;-81
2022/02/10 20:47:38;;;;;;;;;;;;;;;11.48;74.04;99913.89;1743421;80;20236;-83
2022/02/10 20:50:04;;;;;;;;;;;;;;;11.41;74.57;99916.39;1774898;79;20151;-82
2022/02/10 20:52:32;;;;;;;;;;;;;;;11.50;74.78;99911.42;1754006;80;20186;-84
2022/02/10 20:54:58;;;;;;;;;;;;;;;11.47;74.89;99919.69;1753410;81;20120;-77
2022/02/10 20:57:24;;;;;;;;;;;;;;;11.55;74.92;99912.75;1750633;80;21123;-81
2022/02/10 20:59:49;;;;;;;;;;;;;;;11.37;75.60;99905.81;1748765;81;20447;-81
2022/02/10 21:02:18;;;;;;;;;;;;;;;11.56;74.93;99915.22;1755717;80;20184;-83
2022/02/10 21:04:57;;;;;;;;;;;;;;;11.64;74.99;99917.03;1754636;80;20891;-82
2022/02/10 21:07:18;;;;;;;;;;;;;;;11.47;75.58;99931.59;1750051;80;20498;-84
2022/02/10 21:09:48;;;;;;;;;;;;;;;11.31;76.20;99923.19;1748708;81;20112;-80
2022/02/10 21:12:10;;;;;;;;;;;;;;;11.33;76.55;99944.17;1755222;81;20121;-84
2022/02/10 21:14:35;;;;;;;;;;;;;;;11.36;76.42;99930.62;1739203;80;20163;-80
2022/02/10 21:17:07;;;;;;;;;;;;;;;11.31;76.97;99934.23;1755320;81;20476;-81
2022/02/10 21:19:29;;;;;;;;;;;;;;;11.32;76.79;99941.19;1763887;80;20149;-82
2022/02/10 21:21:54;;;;;;;;;;;;;;;11.17;77.57;99933.59;1765211;79;21299;-80
2022/02/10 21:24:26;;;;;;;;;;;;;;;11.13;77.86;99932.59;1766633;79;20514;-80
2022/02/10 21:29:22;;;;;;;;;;;;;;;11.25;77.71;99933.61;1723956;80;20087;-78
2022/02/10 21:31:50;;;;;;;;;;;;;;;11.40;77.36;99937.20;1771029;80;20251;-82
2022/02/10 21:34:22;;;;;;;;;;;;;;;11.18;78.32;99945.82;1766174;80;20987;-81
2022/02/10 21:42:33;;;;;;;;;;;;;;;11.19;78.78;99942.20;1765590;79;20105;-83
2022/02/10 21:57:34;;;;;;;;;;;;;;;11.00;81.38;99957.38;1769469;80;20111;-80
2022/02/10 22:00:00;;;;;;;;;;;;;;;10.66;83.23;99958.31;1763896;80;20124;-80
2022/02/10 22:11:01;;;;;;;;;;;;;;;10.71;84.83;99977.13;1725163;80;20113;-80
2022/02/10 22:21:20;;;;;;;;;;;;;;;10.61;86.83;99963.22;1760266;80;20194;-80
2022/02/10 22:23:45;;;;;;;;;;;;;;;10.47;87.63;99956.78;1758782;80;20145;-81
2022/02/10 22:26:17;;;;;;;;;;;;;;;10.52;87.92;99958.94;1763495;79;20440;-82
2022/02/10 22:28:51;;;;;;;;;;;;;;;10.60;87.88;99969.52;1770025;79;20473;-81
2022/02/10 22:36:28;;;;;;;;;;;;;;;10.90;87.16;99973.87;1764880;80;20127;-80
2022/02/10 22:38:58;;;;;;;;;;;;;;;10.19;89.43;99971.95;1772623;80;20979;-78
2022/02/10 22:41:21;;;;;;;;;;;;;;;10.29;88.78;99979.27;1762281;79;20162;-80
2022/02/10 22:43:48;;;;;;;;;;;;;;;10.38;87.01;99994.19;1764226;79;20139;-80
2022/02/10 22:46:14;;;;;;;;;;;;;;;10.54;85.46;99996.56;1768232;80;20170;-79
2022/02/10 22:48:44;;;;;;;;;;;;;;;10.34;85.03;99988.88;1767196;80;20170;-80
2022/02/10 22:51:14;;;;;;;;;;;;;;;10.36;84.62;99996.17;1758418;80;21134;-83
2022/02/10 22:53:39;;;;;;;;;;;;;;;10.47;83.24;100006.09;1762626;79;20203;-81
2022/02/10 22:56:09;;;;;;;;;;;;;;;10.38;83.01;100000.78;1754722;79;20792;-81
2022/02/10 22:58:37;;;;;;;;;;;;;;;10.11;83.11;100014.95;1766064;79;20138;-81
2022/02/10 23:01:02;;;;;;;;;;;;;;;10.24;82.50;100002.68;1761077;79;20178;-82
2022/02/10 23:03:28;;;;;;;;;;;;;;;10.28;82.12;100011.09;1761299;79;21086;-81
2022/02/10 23:05:55;;;;;;;;;;;;;;;10.18;81.85;100017.32;1760519;79;20129;-82
2022/02/10 23:08:20;;;;;;;;;;;;;;;10.15;82.11;100035.28;1740022;80;20474;-80
2022/02/10 23:10:50;;;;;;;;;;;;;;;10.03;82.65;100034.20;1758566;79;20139;-80
2022/02/10 23:13:25;;;;;;;;;;;;;;;10.06;82.70;100031.25;1774859;80;20188;-80
2022/02/10 23:15:50;;;;;;;;;;;;;;;10.10;83.00;100041.50;1757863;80;20169;-82
2022/02/10 23:18:21;;;;;;;;;;;;;;;9.92;83.54;100042.39;1770258;80;20187;-79
2022/02/10 23:20:47;;;;;;;;;;;;;;;9.82;83.53;100046.92;1761722;79;20497;-78
2022/02/10 23:23:15;;;;;;;;;;;;;;;9.95;82.63;100052.62;1766895;80;20153;-81
2022/02/10 23:25:41;;;;;;;;;;;;;;;9.85;82.69;100050.56;1768689;80;20141;-82
2022/02/10 23:28:11;;;;;;;;;;;;;;;10.05;81.65;100063.92;1758482;79;21912;-80
2022/02/10 23:30:36;;;;;;;;;;;;;;;10.20;81.29;100052.78;1764784;79;20216;-81
2022/02/10 23:33:17;;;;;;;;;;;;;;;10.12;81.57;100067.26;1758530;80;20518;-80
2022/02/10 23:38:22;;;;;;;;;;;;;;;9.45;83.30;100066.41;1757810;79;20129;-82
2022/02/10 23:43:31;;;;;;;;;;;;;;;9.55;82.57;100097.46;1768263;80;20180;-82
2022/02/10 23:45:56;;;;;;;;;;;;;;;9.65;81.55;100085.05;1763568;79;20140;-82
2022/02/10 23:48:22;;;;;;;;;;;;;;;9.65;81.26;100090.31;1763324;79;20146;-82
2022/02/10 23:50:47;;;;;;;;;;;;;;;9.43;82.06;100097.34;1760433;79;20273;-81
2022/02/10 23:53:13;;;;;;;;;;;;;;;9.45;81.53;100107.27;1766120;79;21101;-83
2022/02/10 23:55:40;;;;;;;;;;;;;;;9.53;80.61;100113.93;1766100;79;20183;-82
